createdAt,value
2023-05-22T00:00:36.972Z,11
2023-05-22T00:01:37.768Z,11
2023-05-22T00:02:39.217Z,11
2023-05-22T00:03:39.845Z,9
2023-05-22T00:04:40.914Z,9
2023-05-22T00:05:41.839Z,11
2023-05-22T00:06:42.818Z,9
2023-05-22T00:07:43.781Z,9
2023-05-22T00:08:44.794Z,11
2023-05-22T00:09:45.841Z,9
2023-05-22T00:10:46.816Z,11
2023-05-22T00:11:47.817Z,8
2023-05-22T00:12:48.757Z,9
2023-05-22T00:13:49.804Z,9
2023-05-22T00:14:50.880Z,9
2023-05-22T00:15:51.775Z,9
2023-05-22T00:16:52.827Z,8
2023-05-22T00:17:53.867Z,9
2023-05-22T00:18:54.930Z,9
2023-05-22T00:19:55.896Z,11
2023-05-22T00:20:56.879Z,9
2023-05-22T00:21:57.862Z,9
2023-05-22T00:22:58.864Z,9
2023-05-22T00:23:59.764Z,9
2023-05-22T00:25:00.816Z,9
2023-05-22T00:26:01.813Z,9
2023-05-22T00:27:02.808Z,8
2023-05-22T00:28:03.826Z,8
2023-05-22T00:29:04.758Z,9
2023-05-22T00:30:05.878Z,9
2023-05-22T00:31:06.836Z,9
2023-05-22T00:32:07.888Z,11
2023-05-22T00:33:08.853Z,11
2023-05-22T00:34:09.867Z,11
2023-05-22T00:35:10.839Z,9
2023-05-22T00:36:11.890Z,11
2023-05-22T00:37:12.821Z,11
2023-05-22T00:38:13.867Z,11
2023-05-22T00:39:14.784Z,9
2023-05-22T00:40:15.816Z,9
2023-05-22T00:41:16.876Z,8
2023-05-22T00:42:17.848Z,8
2023-05-22T00:43:18.818Z,8
2023-05-22T00:44:20.686Z,8
2023-05-22T00:45:21.830Z,9
2023-05-22T00:46:23.109Z,8
2023-05-22T00:47:23.955Z,9
2023-05-22T00:48:24.918Z,9
2023-05-22T00:49:25.937Z,10
2023-05-22T00:50:26.838Z,9
2023-05-22T00:51:27.845Z,9
2023-05-22T00:52:28.821Z,9
2023-05-22T00:53:29.801Z,9
2023-05-22T00:54:30.900Z,9
2023-05-22T00:55:31.803Z,11
2023-05-22T00:56:32.818Z,9
2023-05-22T00:57:33.937Z,9
2023-05-22T00:58:34.884Z,9
2023-05-22T00:59:35.907Z,9
2023-05-22T01:00:37.047Z,11
2023-05-22T01:01:37.932Z,8
2023-05-22T01:02:38.831Z,8
2023-05-22T01:03:39.936Z,9
2023-05-22T01:04:40.956Z,8
2023-05-22T01:05:41.833Z,9
2023-05-22T01:06:42.898Z,11
2023-05-22T01:07:43.837Z,9
2023-05-22T01:08:44.880Z,9
2023-05-22T01:09:45.878Z,9
2023-05-22T01:10:46.909Z,8
2023-05-22T01:11:47.846Z,9
2023-05-22T01:12:48.892Z,9
2023-05-22T01:13:49.841Z,9
2023-05-22T01:14:50.866Z,9
2023-05-22T01:15:51.883Z,8
2023-05-22T01:16:52.876Z,8
2023-05-22T01:17:53.922Z,8
2023-05-22T01:18:54.904Z,11
2023-05-22T01:19:55.903Z,9
2023-05-22T01:20:56.838Z,9
2023-05-22T01:21:57.837Z,11
2023-05-22T01:22:58.884Z,9
2023-05-22T01:23:59.839Z,8
2023-05-22T01:25:00.836Z,9
2023-05-22T01:26:01.897Z,9
2023-05-22T01:27:02.866Z,9
2023-05-22T01:28:03.987Z,9
2023-05-22T01:29:04.875Z,9
2023-05-22T01:30:05.955Z,8
2023-05-22T01:31:06.937Z,9
2023-05-22T01:32:07.898Z,8
2023-05-22T01:33:08.958Z,8
2023-05-22T01:35:57.001Z,8
2023-05-22T01:36:57.893Z,8
2023-05-22T01:37:58.860Z,9
2023-05-22T01:38:59.843Z,9
2023-05-22T01:40:00.880Z,9
2023-05-22T01:41:01.865Z,9
2023-05-22T01:42:02.961Z,8
2023-05-22T01:43:03.898Z,8
2023-05-22T01:44:04.885Z,9
2023-05-22T01:45:05.879Z,9
2023-05-22T01:46:06.975Z,9
2023-05-22T01:47:07.908Z,9
2023-05-22T01:48:09.012Z,8
2023-05-22T01:49:09.877Z,9
2023-05-22T01:50:10.909Z,8
2023-05-22T01:51:11.977Z,8
2023-05-22T01:52:12.881Z,8
2023-05-22T01:53:13.922Z,8
2023-05-22T01:54:14.942Z,9
2023-05-22T01:55:15.900Z,8
2023-05-22T01:56:16.863Z,7
2023-05-22T01:57:17.868Z,8
2023-05-22T01:58:18.900Z,8
2023-05-22T01:59:19.964Z,8
2023-05-22T02:00:20.932Z,8
2023-05-22T02:01:24.870Z,8
2023-05-22T02:02:25.993Z,8
2023-05-22T02:03:27.143Z,8
2023-05-22T02:04:27.919Z,8
2023-05-22T02:05:28.879Z,8
2023-05-22T02:06:29.957Z,8
2023-05-22T02:07:30.873Z,8
2023-05-22T02:08:31.889Z,9
2023-05-22T02:09:32.928Z,8
2023-05-22T02:10:33.868Z,7
2023-05-22T02:11:34.941Z,7
2023-05-22T02:12:35.900Z,8
2023-05-22T02:13:36.906Z,9
2023-05-22T02:14:37.901Z,8
2023-05-22T02:15:38.938Z,8
2023-05-22T02:16:39.898Z,8
2023-05-22T02:17:40.938Z,7
2023-05-22T02:18:41.907Z,7
2023-05-22T02:19:42.883Z,8
2023-05-22T02:20:43.941Z,7
2023-05-22T02:21:44.905Z,8
2023-05-22T02:22:45.945Z,7
2023-05-22T02:23:46.983Z,8
2023-05-22T02:24:47.891Z,8
2023-05-22T02:25:48.888Z,7
2023-05-22T02:26:49.941Z,7
2023-05-22T02:27:50.885Z,7
2023-05-22T02:28:51.900Z,8
2023-05-22T02:29:52.925Z,8
2023-05-22T02:30:53.944Z,8
2023-05-22T02:31:54.940Z,7
2023-05-22T02:32:55.990Z,7
2023-05-22T02:33:56.882Z,7
2023-05-22T02:34:57.882Z,7
2023-05-22T02:35:58.882Z,8
2023-05-22T02:37:00.171Z,8
2023-05-22T02:38:00.923Z,9
2023-05-22T02:39:01.944Z,8
2023-05-22T02:40:02.876Z,8
2023-05-22T02:41:03.926Z,9
2023-05-22T02:42:04.929Z,8
2023-05-22T02:43:05.935Z,9
2023-05-22T02:44:07.015Z,9
2023-05-22T02:45:07.947Z,9
2023-05-22T02:46:09.032Z,9
2023-05-22T02:47:09.924Z,8
2023-05-22T02:48:10.995Z,7
2023-05-22T02:49:11.959Z,7
2023-05-22T02:50:12.920Z,9
2023-05-22T02:51:14.040Z,8
2023-05-22T02:52:15.003Z,7
2023-05-22T02:53:15.899Z,8
2023-05-22T02:54:16.991Z,8
2023-05-22T02:55:17.958Z,9
2023-05-22T02:56:18.973Z,8
2023-05-22T02:57:19.896Z,6
2023-05-22T02:58:20.918Z,7
2023-05-22T02:59:22.061Z,7
2023-05-22T03:00:23.027Z,8
2023-05-22T03:01:23.958Z,7
2023-05-22T03:02:25.018Z,9
2023-05-22T03:03:26.223Z,8
2023-05-22T03:04:27.018Z,7
2023-05-22T03:05:27.909Z,6
2023-05-22T03:06:28.997Z,6
2023-05-22T03:07:30.011Z,6
2023-05-22T03:08:30.882Z,8
2023-05-22T03:09:31.917Z,8
2023-05-22T03:10:32.937Z,8
2023-05-22T03:11:33.918Z,9
2023-05-22T03:12:34.964Z,8
2023-05-22T03:13:35.880Z,7
2023-05-22T03:14:36.981Z,7
2023-05-22T03:15:37.940Z,7
2023-05-22T03:16:38.961Z,8
2023-05-22T03:17:39.935Z,7
2023-05-22T03:18:40.968Z,11
2023-05-22T03:19:41.919Z,9
2023-05-22T03:20:42.922Z,9
2023-05-22T03:21:43.931Z,7
2023-05-22T03:22:44.988Z,7
2023-05-22T03:23:45.941Z,9
2023-05-22T03:24:46.957Z,8
2023-05-22T03:25:48.068Z,8
2023-05-22T03:26:48.948Z,8
2023-05-22T03:27:49.920Z,8
2023-05-22T03:28:50.928Z,9
2023-05-22T03:29:51.924Z,8
2023-05-22T03:30:53.002Z,8
2023-05-22T03:31:53.998Z,7
2023-05-22T03:32:54.981Z,9
2023-05-22T03:33:55.922Z,8
2023-05-22T03:34:56.921Z,9
2023-05-22T03:35:57.940Z,11
2023-05-22T03:36:58.945Z,11
2023-05-22T03:37:59.947Z,11
2023-05-22T03:39:00.905Z,11
2023-05-22T03:40:01.991Z,11
2023-05-22T03:41:02.922Z,9
2023-05-22T03:42:03.939Z,9
2023-05-22T03:43:05.068Z,9
2023-05-22T03:44:05.962Z,8
2023-05-22T03:45:06.967Z,8
2023-05-22T03:46:07.982Z,9
2023-05-22T03:47:09.002Z,8
2023-05-22T03:48:10.021Z,9
2023-05-22T03:49:11.079Z,9
2023-05-22T03:50:11.983Z,9
2023-05-22T03:51:13.029Z,9
2023-05-22T03:52:14.027Z,8
2023-05-22T03:53:14.934Z,8
2023-05-22T03:54:15.926Z,9
2023-05-22T03:55:16.967Z,8
2023-05-22T03:56:17.960Z,9
2023-05-22T03:57:18.923Z,9
2023-05-22T03:58:19.939Z,8
2023-05-22T03:59:20.929Z,9
2023-05-22T04:00:22.055Z,9
2023-05-22T04:01:22.923Z,9
2023-05-22T04:02:24.066Z,9
2023-05-22T04:03:25.002Z,9
2023-05-22T04:04:25.897Z,9
2023-05-22T04:05:27.205Z,8
2023-05-22T04:06:27.928Z,9
2023-05-22T04:07:28.897Z,11
2023-05-22T04:08:30.005Z,11
2023-05-22T04:09:30.926Z,9
2023-05-22T04:10:31.939Z,9
2023-05-22T04:11:32.967Z,8
2023-05-22T04:12:33.937Z,9
2023-05-22T04:13:35.020Z,9
2023-05-22T04:14:35.985Z,11
2023-05-22T04:15:37.028Z,11
2023-05-22T04:16:38.028Z,11
2023-05-22T04:17:39.014Z,11
2023-05-22T04:18:39.937Z,11
2023-05-22T04:19:40.947Z,11
2023-05-22T04:20:42.636Z,11
2023-05-22T04:21:43.996Z,11
2023-05-22T04:22:44.997Z,11
2023-05-22T04:23:45.965Z,9
2023-05-22T04:24:47.037Z,11
2023-05-22T04:25:48.146Z,9
2023-05-22T04:26:48.958Z,9
2023-05-22T04:27:49.997Z,11
2023-05-22T04:28:50.982Z,12
2023-05-22T04:29:51.961Z,11
2023-05-22T04:30:53.025Z,9
2023-05-22T04:31:53.968Z,9
2023-05-22T04:32:54.978Z,9
2023-05-22T04:33:56.084Z,11
2023-05-22T04:34:56.960Z,11
2023-05-22T04:35:58.022Z,9
2023-05-22T04:36:58.978Z,9
2023-05-22T04:37:59.939Z,11
2023-05-22T04:39:01.021Z,8
2023-05-22T04:40:02.080Z,9
2023-05-22T04:41:03.158Z,12
2023-05-22T04:42:03.988Z,11
2023-05-22T04:43:05.082Z,11
2023-05-22T04:44:05.920Z,11
2023-05-22T04:45:07.076Z,11
2023-05-22T04:46:08.138Z,11
2023-05-22T04:47:09.228Z,11
2023-05-22T04:48:09.988Z,9
2023-05-22T04:49:11.001Z,9
2023-05-22T04:50:12.078Z,12
2023-05-22T04:51:13.027Z,12
2023-05-22T04:52:14.205Z,12
2023-05-22T04:53:15.029Z,11
2023-05-22T04:54:16.034Z,11
2023-05-22T04:55:17.042Z,9
2023-05-22T04:56:28.098Z,9
2023-05-22T04:57:19.080Z,12
2023-05-22T04:58:20.028Z,11
2023-05-22T04:59:20.946Z,12
2023-05-22T05:00:22.022Z,12
2023-05-22T05:01:23.013Z,11
2023-05-22T05:02:23.985Z,12
2023-05-22T05:03:24.986Z,12
2023-05-22T05:04:25.965Z,12
2023-05-22T05:05:27.040Z,11
2023-05-22T05:06:27.941Z,11
2023-05-22T05:07:28.997Z,9
2023-05-22T05:08:30.047Z,11
2023-05-22T05:09:31.023Z,11
2023-05-22T05:10:32.079Z,9
2023-05-22T05:11:33.066Z,11
2023-05-22T05:12:34.576Z,11
2023-05-22T05:13:36.156Z,12
2023-05-22T05:14:37.033Z,11
2023-05-22T05:15:37.995Z,11
2023-05-22T05:16:38.942Z,11
2023-05-22T05:17:40.011Z,11
2023-05-22T05:18:41.039Z,11
2023-05-22T05:19:41.996Z,11
2023-05-22T05:20:42.964Z,11
2023-05-22T05:21:43.976Z,12
2023-05-22T05:22:44.996Z,12
2023-05-22T05:23:46.034Z,11
2023-05-22T05:24:47.043Z,11
2023-05-22T05:25:48.050Z,9
2023-05-22T05:26:48.997Z,12
2023-05-22T05:27:49.996Z,12
2023-05-22T05:28:50.990Z,12
2023-05-22T05:29:51.974Z,11
2023-05-22T05:30:52.937Z,11
2023-05-22T05:31:53.984Z,12
2023-05-22T05:32:54.965Z,12
2023-05-22T05:33:56.016Z,12
2023-05-22T05:34:56.976Z,11
2023-05-22T05:35:57.955Z,14
2023-05-22T05:36:58.937Z,12
2023-05-22T05:37:59.984Z,11
2023-05-22T05:39:01.004Z,11
2023-05-22T05:40:02.061Z,11
2023-05-22T05:41:03.014Z,12
2023-05-22T05:42:04.031Z,11
2023-05-22T05:43:05.907Z,13
2023-05-22T05:44:06.062Z,12
2023-05-22T05:45:07.020Z,12
2023-05-22T05:46:08.056Z,12
2023-05-22T05:47:09.237Z,11
2023-05-22T05:48:10.094Z,12
2023-05-22T05:49:11.059Z,12
2023-05-22T05:50:12.027Z,12
2023-05-22T05:51:13.062Z,11
2023-05-22T05:52:14.090Z,12
2023-05-22T05:53:15.005Z,13
2023-05-22T05:54:16.008Z,13
2023-05-22T05:55:17.243Z,12
2023-05-22T05:56:18.081Z,13
2023-05-22T05:57:19.060Z,13
2023-05-22T05:58:20.008Z,13
2023-05-22T05:59:21.138Z,14
2023-05-22T06:00:22.046Z,15
2023-05-22T06:01:22.985Z,13
2023-05-22T06:02:24.087Z,13
2023-05-22T06:03:25.087Z,13
2023-05-22T06:04:26.039Z,13
2023-05-22T06:05:27.243Z,13
2023-05-22T06:06:28.168Z,13
2023-05-22T06:07:29.245Z,13
2023-05-22T06:08:31.099Z,12
2023-05-22T06:09:32.002Z,12
2023-05-22T06:10:33.063Z,12
2023-05-22T06:11:34.006Z,13
2023-05-22T06:12:35.051Z,12
2023-05-22T06:13:36.043Z,12
2023-05-22T06:14:37.059Z,13
2023-05-22T06:15:38.000Z,13
2023-05-22T06:16:39.159Z,12
2023-05-22T06:17:40.144Z,-1
2023-05-22T06:18:41.081Z,13
2023-05-22T06:19:42.081Z,13
2023-05-22T06:20:43.081Z,13
2023-05-22T06:21:44.022Z,12
2023-05-22T06:22:44.979Z,12
2023-05-22T06:23:46.056Z,13
2023-05-22T06:24:46.987Z,13
2023-05-22T06:25:48.144Z,13
2023-05-22T06:26:49.182Z,13
2023-05-22T06:27:50.081Z,14
2023-05-22T06:28:51.064Z,13
2023-05-22T06:29:52.090Z,13
2023-05-22T06:30:53.101Z,13
2023-05-22T06:31:54.085Z,13
2023-05-22T06:32:55.206Z,14
2023-05-22T06:33:56.113Z,13
2023-05-22T06:34:57.009Z,13
2023-05-22T06:35:58.051Z,13
2023-05-22T06:36:59.045Z,15
2023-05-22T06:38:00.038Z,14
2023-05-22T06:39:01.046Z,14
2023-05-22T06:40:02.088Z,12
2023-05-22T06:41:03.104Z,13
2023-05-22T06:42:04.023Z,13
2023-05-22T06:43:05.061Z,13
2023-05-22T06:44:06.165Z,13
2023-05-22T06:45:07.228Z,13
2023-05-22T06:46:08.067Z,13
2023-05-22T06:47:09.095Z,14
2023-05-22T06:48:10.075Z,14
2023-05-22T06:49:11.025Z,14
2023-05-22T06:50:12.051Z,14
2023-05-22T06:51:13.111Z,14
2023-05-22T06:52:14.081Z,14
2023-05-22T06:53:15.022Z,14
2023-05-22T06:54:16.095Z,13
2023-05-22T06:55:16.981Z,13
2023-05-22T06:56:18.021Z,14
2023-05-22T06:57:19.075Z,15
2023-05-22T06:58:20.069Z,15
2023-05-22T06:59:21.200Z,15
2023-05-22T07:00:22.168Z,14
2023-05-22T07:01:23.057Z,15
2023-05-22T07:02:24.142Z,15
2023-05-22T07:03:25.045Z,15
2023-05-22T07:04:26.187Z,15
2023-05-22T07:05:27.094Z,16
2023-05-22T07:06:28.158Z,16
2023-05-22T07:07:29.221Z,15
2023-05-22T07:08:30.777Z,15
2023-05-22T07:09:31.074Z,15
2023-05-22T07:10:32.062Z,16
2023-05-22T07:11:33.120Z,15
2023-05-22T07:12:34.098Z,15
2023-05-22T07:13:35.139Z,15
2023-05-22T07:14:36.103Z,15
2023-05-22T07:15:37.180Z,14
2023-05-22T07:16:38.165Z,15
2023-05-22T07:17:39.184Z,17
2023-05-22T07:18:40.139Z,17
2023-05-22T07:19:41.143Z,17
2023-05-22T07:20:42.199Z,17
2023-05-22T07:21:43.116Z,16
2023-05-22T07:22:44.217Z,16
2023-05-22T07:23:45.126Z,16
2023-05-22T07:24:46.094Z,16
2023-05-22T07:25:47.168Z,16
2023-05-22T07:26:48.126Z,17
2023-05-22T07:27:49.139Z,16
2023-05-22T07:28:50.173Z,15
2023-05-22T07:29:51.060Z,17
2023-05-22T07:30:52.139Z,17
2023-05-22T07:31:53.136Z,16
2023-05-22T07:32:54.150Z,17
2023-05-22T07:33:55.105Z,16
2023-05-22T07:34:56.105Z,17
2023-05-22T07:35:57.080Z,16
2023-05-22T07:36:58.109Z,16
2023-05-22T07:37:59.162Z,16
2023-05-22T07:39:00.115Z,18
2023-05-22T07:40:01.132Z,16
2023-05-22T07:41:02.082Z,17
2023-05-22T07:42:03.160Z,16
2023-05-22T07:43:04.198Z,16
2023-05-22T07:44:05.179Z,16
2023-05-22T07:45:06.138Z,16
2023-05-22T07:46:07.121Z,17
2023-05-22T07:47:08.052Z,16
2023-05-22T07:48:09.116Z,16
2023-05-22T07:49:10.080Z,16
2023-05-22T07:50:11.129Z,17
2023-05-22T07:51:12.099Z,16
2023-05-22T07:52:13.186Z,16
2023-05-22T07:53:14.194Z,17
2023-05-22T07:54:15.118Z,16
2023-05-22T07:55:16.218Z,16
2023-05-22T07:56:17.146Z,16
2023-05-22T07:57:18.433Z,17
2023-05-22T07:58:19.116Z,18
2023-05-22T07:59:20.117Z,18
2023-05-22T08:00:21.175Z,18
2023-05-22T08:01:22.126Z,18
2023-05-22T08:02:23.176Z,18
2023-05-22T08:03:24.570Z,17
2023-05-22T08:04:25.355Z,17
2023-05-22T08:05:26.235Z,18
2023-05-22T08:06:27.237Z,17
2023-05-22T08:07:28.119Z,17
2023-05-22T08:08:31.258Z,16
2023-05-22T08:09:30.135Z,18
2023-05-22T08:10:41.835Z,18
2023-05-22T08:11:32.125Z,18
2023-05-22T08:12:33.181Z,18
2023-05-22T08:13:34.115Z,17
2023-05-22T08:14:35.123Z,18
2023-05-22T08:15:36.055Z,17
2023-05-22T08:16:37.138Z,18
2023-05-22T08:17:38.235Z,18
2023-05-22T08:18:39.098Z,18
2023-05-22T08:19:40.239Z,18
2023-05-22T08:20:41.253Z,18
2023-05-22T08:21:42.115Z,17
2023-05-22T08:22:43.075Z,18
2023-05-22T08:23:44.116Z,18
2023-05-22T08:24:45.142Z,18
2023-05-22T08:25:46.095Z,18
2023-05-22T08:26:47.134Z,17
2023-05-22T08:27:48.283Z,18
2023-05-22T08:28:49.052Z,18
2023-05-22T08:29:50.161Z,18
2023-05-22T08:30:51.120Z,18
2023-05-22T08:31:52.196Z,18
2023-05-22T08:32:53.265Z,18
2023-05-22T08:33:54.223Z,17
2023-05-22T08:34:55.174Z,17
2023-05-22T08:35:56.121Z,17
2023-05-22T08:36:57.135Z,18
2023-05-22T08:37:58.234Z,18
2023-05-22T08:38:59.232Z,18
2023-05-22T08:40:00.120Z,18
2023-05-22T08:41:01.204Z,18
2023-05-22T08:42:02.113Z,17
2023-05-22T08:43:03.308Z,18
2023-05-22T08:44:04.130Z,17
2023-05-22T08:45:05.164Z,18
2023-05-22T08:46:06.144Z,18
2023-05-22T08:47:07.187Z,18
2023-05-22T08:48:08.207Z,17
2023-05-22T08:49:09.163Z,19
2023-05-22T08:50:10.234Z,20
2023-05-22T08:51:11.123Z,17
2023-05-22T08:52:12.135Z,22
2023-05-22T08:53:13.145Z,19
2023-05-22T08:54:14.188Z,20
2023-05-22T08:55:15.133Z,18
2023-05-22T08:56:16.103Z,18
2023-05-22T08:57:17.095Z,18
2023-05-22T08:58:18.236Z,18
2023-05-22T08:59:19.200Z,18
2023-05-22T09:00:20.177Z,19
2023-05-22T09:01:21.143Z,18
2023-05-22T09:02:22.296Z,18
2023-05-22T09:03:23.174Z,18
2023-05-22T09:04:24.574Z,18
2023-05-22T09:05:26.235Z,17
2023-05-22T09:06:27.281Z,19
2023-05-22T09:07:28.157Z,20
2023-05-22T09:08:29.177Z,20
2023-05-22T09:09:30.255Z,19
2023-05-22T09:10:31.163Z,18
2023-05-22T09:11:32.178Z,17
2023-05-22T09:12:33.158Z,18
2023-05-22T09:13:34.153Z,19
2023-05-22T09:14:35.193Z,20
2023-05-22T09:15:36.143Z,17
2023-05-22T09:16:37.203Z,19
2023-05-22T09:17:38.211Z,19
2023-05-22T09:18:39.159Z,22
2023-05-22T09:19:40.337Z,19
2023-05-22T09:20:41.424Z,19
2023-05-22T09:21:42.607Z,19
2023-05-22T09:22:43.117Z,19
2023-05-22T09:23:44.200Z,19
2023-05-22T09:24:45.157Z,20
2023-05-22T09:25:46.180Z,23
2023-05-22T09:26:47.249Z,19
2023-05-22T09:27:48.179Z,20
2023-05-22T09:28:49.248Z,24
2023-05-22T09:29:50.206Z,22
2023-05-22T09:30:51.246Z,20
2023-05-22T09:31:52.270Z,19
2023-05-22T09:32:53.307Z,18
2023-05-22T09:33:54.193Z,20
2023-05-22T09:34:55.169Z,19
2023-05-22T09:35:56.183Z,17
2023-05-22T09:36:57.155Z,17
2023-05-22T09:37:58.115Z,19
2023-05-22T09:38:59.300Z,19
2023-05-22T09:40:00.189Z,18
2023-05-22T09:41:01.152Z,22
2023-05-22T09:42:02.110Z,22
2023-05-22T09:43:03.117Z,19
2023-05-22T09:44:04.315Z,18
2023-05-22T09:45:05.180Z,20
2023-05-22T09:46:06.316Z,19
2023-05-22T09:47:07.251Z,19
2023-05-22T09:48:08.271Z,19
2023-05-22T09:49:09.209Z,20
2023-05-22T09:50:10.208Z,19
2023-05-22T09:51:11.165Z,20
2023-05-22T09:52:12.225Z,18
2023-05-22T09:53:13.181Z,20
2023-05-22T09:54:14.149Z,19
2023-05-22T09:55:15.204Z,18
2023-05-22T09:56:21.421Z,20
2023-05-22T09:57:17.124Z,17
2023-05-22T09:58:18.181Z,19
2023-05-22T09:59:19.265Z,20
2023-05-22T10:00:20.198Z,19
2023-05-22T10:01:21.165Z,18
2023-05-22T10:02:22.148Z,20
2023-05-22T10:03:23.181Z,19
2023-05-22T10:04:24.305Z,19
2023-05-22T10:05:25.186Z,19
2023-05-22T10:06:26.158Z,18
2023-05-22T10:07:27.281Z,18
2023-05-22T10:08:28.170Z,19
2023-05-22T10:09:29.142Z,19
2023-05-22T10:10:30.345Z,20
2023-05-22T10:11:31.182Z,20
2023-05-22T10:12:32.220Z,20
2023-05-22T10:13:33.220Z,22
2023-05-22T10:14:34.292Z,20
2023-05-22T10:15:35.223Z,19
2023-05-22T10:16:36.267Z,19
2023-05-22T10:17:37.268Z,19
2023-05-22T10:18:38.262Z,20
2023-05-22T10:19:41.818Z,19
2023-05-22T10:20:40.419Z,19
2023-05-22T10:21:41.206Z,19
2023-05-22T10:22:42.268Z,20
2023-05-22T10:23:43.230Z,24
2023-05-22T10:24:44.250Z,24
2023-05-22T10:25:45.194Z,23
2023-05-22T10:26:46.260Z,22
2023-05-22T10:27:47.284Z,23
2023-05-22T10:28:48.201Z,19
2023-05-22T10:29:49.311Z,22
2023-05-22T10:30:50.241Z,20
2023-05-22T10:31:51.224Z,20
2023-05-22T10:32:52.184Z,19
2023-05-22T10:33:53.223Z,18
2023-05-22T10:34:54.201Z,19
2023-05-22T10:35:55.206Z,18
2023-05-22T10:37:03.112Z,17
2023-05-22T10:37:57.252Z,18
2023-05-22T10:38:58.217Z,19
2023-05-22T10:39:59.141Z,18
2023-05-22T10:41:00.258Z,19
2023-05-22T10:42:01.167Z,19
2023-05-22T10:43:02.288Z,18
2023-05-22T10:44:03.218Z,20
2023-05-22T10:45:04.618Z,18
2023-05-22T10:46:05.312Z,18
2023-05-22T10:47:06.274Z,18
2023-05-22T10:48:07.392Z,18
2023-05-22T10:49:08.223Z,19
2023-05-22T10:50:09.257Z,18
2023-05-22T10:51:10.250Z,19
2023-05-22T10:52:11.231Z,20
2023-05-22T10:53:12.192Z,19
2023-05-22T10:54:13.202Z,20
2023-05-22T10:55:14.263Z,22
2023-05-22T10:56:15.212Z,20
2023-05-22T10:57:16.264Z,22
2023-05-22T10:58:17.171Z,19
2023-05-22T10:59:18.245Z,19
2023-05-22T11:00:19.287Z,20
2023-05-22T11:01:20.287Z,20
2023-05-22T11:02:21.289Z,19
2023-05-22T11:03:22.256Z,18
2023-05-22T11:04:23.250Z,19
2023-05-22T11:05:24.225Z,20
2023-05-22T11:06:25.206Z,20
2023-05-22T11:07:26.266Z,20
2023-05-22T11:08:27.311Z,19
2023-05-22T11:09:28.222Z,19
2023-05-22T11:10:29.193Z,20
2023-05-22T11:11:30.228Z,20
2023-05-22T11:12:31.269Z,20
2023-05-22T11:13:32.213Z,22
2023-05-22T11:14:33.212Z,22
2023-05-22T11:15:34.576Z,22
2023-05-22T11:16:35.283Z,23
2023-05-22T11:17:36.360Z,24
2023-05-22T11:18:37.312Z,22
2023-05-22T11:19:38.295Z,23
2023-05-22T11:20:39.442Z,23
2023-05-22T11:21:40.243Z,23
2023-05-22T11:22:41.216Z,22
2023-05-22T11:23:42.345Z,22
2023-05-22T11:24:58.354Z,23
2023-05-22T11:25:59.287Z,25
2023-05-22T11:27:00.210Z,23
2023-05-22T11:28:01.227Z,24
2023-05-22T11:29:02.295Z,23
2023-05-22T11:30:03.247Z,23
2023-05-22T11:31:04.349Z,22
2023-05-22T11:32:05.266Z,22
2023-05-22T11:33:06.716Z,22
2023-05-22T11:34:07.413Z,20
2023-05-22T11:35:08.262Z,20
2023-05-22T11:36:09.277Z,22
2023-05-22T11:37:10.282Z,20
2023-05-22T11:38:11.267Z,20
2023-05-22T11:39:12.287Z,22
2023-05-22T11:40:13.297Z,23
2023-05-22T11:41:14.293Z,20
2023-05-22T11:42:15.265Z,20
2023-05-22T11:43:16.280Z,22
2023-05-22T11:44:17.307Z,22
2023-05-22T11:45:18.641Z,22
2023-05-22T11:46:20.401Z,22
2023-05-22T11:47:21.228Z,20
2023-05-22T11:48:22.275Z,20
2023-05-22T11:49:23.226Z,20
2023-05-22T11:50:33.940Z,23
2023-05-22T11:51:25.185Z,23
2023-05-22T11:52:26.293Z,23
2023-05-22T11:53:27.394Z,24
2023-05-22T11:54:28.249Z,24
2023-05-22T11:55:29.308Z,23
2023-05-22T11:56:30.322Z,24
2023-05-22T11:57:31.212Z,22
2023-05-22T11:58:32.223Z,23
2023-05-22T11:59:33.282Z,22
2023-05-22T12:00:34.412Z,22
2023-05-22T12:01:35.254Z,22
2023-05-22T12:02:36.487Z,24
2023-05-22T12:03:37.416Z,23
2023-05-22T12:04:38.186Z,22
2023-05-22T12:05:39.299Z,23
2023-05-22T12:06:40.382Z,23
2023-05-22T12:07:41.333Z,24
2023-05-22T12:08:42.259Z,23
2023-05-22T12:09:43.338Z,23
2023-05-22T12:10:44.297Z,24
2023-05-22T12:11:45.233Z,23
2023-05-22T12:12:46.310Z,22
2023-05-22T12:13:47.297Z,23
2023-05-22T12:14:48.186Z,23
2023-05-22T12:15:49.258Z,22
2023-05-22T12:16:50.498Z,24
2023-05-22T12:17:51.303Z,23
2023-05-22T12:18:52.406Z,23
2023-05-22T12:19:53.247Z,23
2023-05-22T12:20:54.364Z,25
2023-05-22T12:21:55.273Z,24
2023-05-22T12:22:56.308Z,24
2023-05-22T12:23:57.278Z,24
2023-05-22T12:24:58.347Z,25
2023-05-22T12:25:59.274Z,24
2023-05-22T12:27:00.154Z,25
2023-05-22T12:28:01.356Z,25
2023-05-22T12:29:02.242Z,26
2023-05-22T12:30:03.385Z,25
2023-05-22T12:31:04.289Z,25
2023-05-22T12:32:05.438Z,24
2023-05-22T12:33:06.321Z,24
2023-05-22T12:34:07.325Z,25
2023-05-22T12:35:08.310Z,25
2023-05-22T12:36:09.402Z,24
2023-05-22T12:37:10.348Z,24
2023-05-22T12:38:11.275Z,24
2023-05-22T12:39:12.209Z,25
2023-05-22T12:40:13.300Z,24
2023-05-22T12:41:14.405Z,25
2023-05-22T12:42:15.381Z,25
2023-05-22T12:43:16.342Z,24
2023-05-22T12:44:18.281Z,24
2023-05-22T12:45:19.526Z,24
2023-05-22T12:46:20.286Z,24
2023-05-22T12:47:21.447Z,24
2023-05-22T12:48:22.361Z,23
2023-05-22T12:49:23.240Z,23
2023-05-22T12:50:24.325Z,24
2023-05-22T12:51:25.293Z,23
2023-05-22T12:52:26.307Z,23
2023-05-22T12:53:27.352Z,23
2023-05-22T12:54:28.320Z,25
2023-05-22T12:55:29.274Z,24
2023-05-22T12:56:30.302Z,25
2023-05-22T12:57:31.217Z,24
2023-05-22T12:58:32.379Z,25
2023-05-22T12:59:33.325Z,24
2023-05-22T13:00:34.298Z,24
2023-05-22T13:01:35.620Z,23
2023-05-22T13:02:36.558Z,26
2023-05-22T13:03:37.325Z,23
2023-05-22T13:04:38.389Z,24
2023-05-22T13:05:39.457Z,24
2023-05-22T13:06:40.248Z,25
2023-05-22T13:07:41.261Z,25
2023-05-22T13:08:42.290Z,26
2023-05-22T13:09:43.208Z,27
2023-05-22T13:10:44.307Z,26
2023-05-22T13:11:45.378Z,26
2023-05-22T13:12:46.380Z,27
2023-05-22T13:13:47.388Z,26
2023-05-22T13:14:48.287Z,26
2023-05-22T13:15:49.276Z,28
2023-05-22T13:16:50.247Z,26
2023-05-22T13:17:51.485Z,25
2023-05-22T13:18:52.296Z,25
2023-05-22T13:19:53.356Z,25
2023-05-22T13:20:57.393Z,25
2023-05-22T13:21:58.240Z,28
2023-05-22T13:22:59.247Z,26
2023-05-22T13:24:00.381Z,24
2023-05-22T13:25:01.313Z,25
2023-05-22T13:26:02.346Z,25
2023-05-22T13:27:03.475Z,26
2023-05-22T13:28:04.281Z,26
2023-05-22T13:29:05.305Z,27
2023-05-22T13:30:06.430Z,27
2023-05-22T13:31:07.395Z,24
2023-05-22T13:32:08.271Z,24
2023-05-22T13:33:09.637Z,23
2023-05-22T13:34:10.369Z,23
2023-05-22T13:35:11.319Z,23
2023-05-22T13:36:12.315Z,23
2023-05-22T13:37:13.306Z,23
2023-05-22T13:38:14.326Z,25
2023-05-22T13:39:15.294Z,25
2023-05-22T13:40:16.262Z,25
2023-05-22T13:41:17.318Z,26
2023-05-22T13:42:18.345Z,26
2023-05-22T13:43:19.243Z,27
2023-05-22T13:44:20.299Z,26
2023-05-22T13:45:21.196Z,25
2023-05-22T13:46:22.420Z,25
2023-05-22T13:47:23.649Z,25
2023-05-22T13:48:24.435Z,24
2023-05-22T13:49:25.281Z,25
2023-05-22T13:50:26.334Z,24
2023-05-22T13:51:27.368Z,23
2023-05-22T13:52:28.422Z,23
2023-05-22T13:53:29.294Z,24
2023-05-22T13:54:30.353Z,25
2023-05-22T13:55:31.281Z,25
2023-05-22T13:56:32.337Z,25
2023-05-22T13:57:33.283Z,26
2023-05-22T13:58:34.327Z,26
2023-05-22T13:59:35.341Z,27
2023-05-22T14:00:36.344Z,26
2023-05-22T14:01:37.480Z,27
2023-05-22T14:02:38.454Z,26
2023-05-22T14:03:39.508Z,26
2023-05-22T14:04:40.313Z,27
2023-05-22T14:05:41.495Z,27
2023-05-22T14:06:42.307Z,27
2023-05-22T14:07:43.272Z,27
2023-05-22T14:08:44.353Z,28
2023-05-22T14:09:45.324Z,30
2023-05-22T14:10:46.348Z,28
2023-05-22T14:11:47.501Z,27
2023-05-22T14:12:48.323Z,26
2023-05-22T14:13:49.337Z,25
2023-05-22T14:14:50.320Z,25
2023-05-22T14:15:51.301Z,26
2023-05-22T14:16:52.388Z,25
2023-05-22T14:17:53.395Z,24
2023-05-22T14:18:54.462Z,25
2023-05-22T14:19:55.395Z,24
2023-05-22T14:20:56.326Z,24
2023-05-22T14:21:57.323Z,26
2023-05-22T14:22:58.611Z,24
2023-05-22T14:23:59.300Z,26
2023-05-22T14:25:00.380Z,25
2023-05-22T14:26:01.377Z,25
2023-05-22T14:27:02.367Z,26
2023-05-22T14:28:03.331Z,26
2023-05-22T14:29:04.415Z,25
2023-05-22T14:30:05.326Z,23
2023-05-22T14:31:06.404Z,24
2023-05-22T14:32:07.465Z,23
2023-05-22T14:33:08.404Z,22
2023-05-22T14:34:09.556Z,24
2023-05-22T14:35:10.411Z,23
2023-05-22T14:36:11.398Z,23
2023-05-22T14:37:12.336Z,23
2023-05-22T14:38:13.320Z,24
2023-05-22T14:39:14.337Z,24
2023-05-22T14:40:15.326Z,24
2023-05-22T14:41:16.356Z,24